sensor_id;sensor_type;location;lat;lon;timestamp;temperature;humidity
24207;DHT22;12351;52.284;9.160;2023-02-04T00:02:15;5.20;99.90
24207;DHT22;12351;52.284;9.160;2023-02-04T00:05:08;5.20;99.90
24207;DHT22;12351;52.284;9.160;2023-02-04T00:07:59;5.20;99.90
24207;DHT22;12351;52.284;9.160;2023-02-04T00:10:53;5.30;99.90
24207;DHT22;12351;52.284;9.160;2023-02-04T00:13:43;5.20;99.90
24207;DHT22;12351;52.284;9.160;2023-02-04T00:16:35;5.30;99.90
24207;DHT22;12351;52.284;9.160;2023-02-04T00:19:24;5.30;99.90
24207;DHT22;12351;52.284;9.160;2023-02-04T00:22:17;5.30;99.90
24207;DHT22;12351;52.284;9.160;2023-02-04T00:25:05;5.30;99.90
24207;DHT22;12351;52.284;9.160;2023-02-04T00:33:37;4.80;99.90
24207;DHT22;12351;52.284;9.160;2023-02-04T00:36:28;4.80;99.90
24207;DHT22;12351;52.284;9.160;2023-02-04T00:39:18;4.80;99.90
24207;DHT22;12351;52.284;9.160;2023-02-04T00:42:11;4.70;99.90
24207;DHT22;12351;52.284;9.160;2023-02-04T00:45:02;4.70;99.90
24207;DHT22;12351;52.284;9.160;2023-02-04T00:47:52;4.80;99.90
24207;DHT22;12351;52.284;9.160;2023-02-04T00:50:42;4.70;99.90
24207;DHT22;12351;52.284;9.160;2023-02-04T00:53:36;4.60;99.90
24207;DHT22;12351;52.284;9.160;2023-02-04T00:56:24;4.70;99.90
24207;DHT22;12351;52.284;9.160;2023-02-04T00:59:15;4.70;99.90
24207;DHT22;12351;52.284;9.160;2023-02-04T01:02:07;4.80;99.90
24207;DHT22;12351;52.284;9.160;2023-02-04T01:04:59;4.70;99.90
24207;DHT22;12351;52.284;9.160;2023-02-04T01:07:51;4.80;99.90
24207;DHT22;12351;52.284;9.160;2023-02-04T01:10:44;4.80;99.90
24207;DHT22;12351;52.284;9.160;2023-02-04T01:13:32;4.80;99.90
24207;DHT22;12351;52.284;9.160;2023-02-04T01:16:20;4.80;99.90
24207;DHT22;12351;52.284;9.160;2023-02-04T01:19:10;4.70;99.90
24207;DHT22;12351;52.284;9.160;2023-02-04T01:22:02;4.80;99.90
24207;DHT22;12351;52.284;9.160;2023-02-04T01:24:53;4.80;99.90
24207;DHT22;12351;52.284;9.160;2023-02-04T01:27:46;4.70;99.90
24207;DHT22;12351;52.284;9.160;2023-02-04T01:30:38;4.70;99.90
24207;DHT22;12351;52.284;9.160;2023-02-04T01:33:30;4.70;99.90
24207;DHT22;12351;52.284;9.160;2023-02-04T01:36:21;4.70;99.90
24207;DHT22;12351;52.284;9.160;2023-02-04T01:39:10;4.70;99.90
24207;DHT22;12351;52.284;9.160;2023-02-04T01:42:01;4.60;99.90
24207;DHT22;12351;52.284;9.160;2023-02-04T01:44:51;4.60;99.90
24207;DHT22;12351;52.284;9.160;2023-02-04T01:47:41;4.60;99.90
24207;DHT22;12351;52.284;9.160;2023-02-04T01:50:34;4.50;99.90
24207;DHT22;12351;52.284;9.160;2023-02-04T01:53:26;4.50;99.90
24207;DHT22;12351;52.284;9.160;2023-02-04T01:56:17;4.50;99.90
24207;DHT22;12351;52.284;9.160;2023-02-04T02:01:56;4.50;99.90
24207;DHT22;12351;52.284;9.160;2023-02-04T02:04:45;4.50;99.90
24207;DHT22;12351;52.284;9.160;2023-02-04T02:07:38;4.50;99.90
24207;DHT22;12351;52.284;9.160;2023-02-04T02:10:27;4.50;99.90
24207;DHT22;12351;52.284;9.160;2023-02-04T02:13:17;4.40;99.90
24207;DHT22;12351;52.284;9.160;2023-02-04T02:16:06;4.40;99.90
24207;DHT22;12351;52.284;9.160;2023-02-04T02:18:55;4.40;99.90
24207;DHT22;12351;52.284;9.160;2023-02-04T02:24:41;4.30;99.90
24207;DHT22;12351;52.284;9.160;2023-02-04T02:27:31;4.30;99.90
24207;DHT22;12351;52.284;9.160;2023-02-04T02:30:21;4.30;99.90
24207;DHT22;12351;52.284;9.160;2023-02-04T02:33:11;4.30;99.90
24207;DHT22;12351;52.284;9.160;2023-02-04T02:36:04;4.30;99.90
24207;DHT22;12351;52.284;9.160;2023-02-04T02:38:53;4.10;99.90
24207;DHT22;12351;52.284;9.160;2023-02-04T02:41:44;4.10;99.90
24207;DHT22;12351;52.284;9.160;2023-02-04T02:44:36;4.10;99.90
24207;DHT22;12351;52.284;9.160;2023-02-04T02:47:25;4.00;99.90
24207;DHT22;12351;52.284;9.160;2023-02-04T02:50:18;4.10;99.90
24207;DHT22;12351;52.284;9.160;2023-02-04T02:53:09;4.10;99.90
24207;DHT22;12351;52.284;9.160;2023-02-04T02:55:56;4.10;99.90
24207;DHT22;12351;52.284;9.160;2023-02-04T02:58:48;4.10;99.90
24207;DHT22;12351;52.284;9.160;2023-02-04T03:01:39;4.00;99.90
24207;DHT22;12351;52.284;9.160;2023-02-04T03:04:33;4.10;99.90
24207;DHT22;12351;52.284;9.160;2023-02-04T03:07:23;4.10;99.90
24207;DHT22;12351;52.284;9.160;2023-02-04T03:10:15;3.90;99.90
24207;DHT22;12351;52.284;9.160;2023-02-04T03:13:04;3.90;99.90
24207;DHT22;12351;52.284;9.160;2023-02-04T03:15:53;4.00;99.90
24207;DHT22;12351;52.284;9.160;2023-02-04T03:18:44;4.00;99.90
24207;DHT22;12351;52.284;9.160;2023-02-04T03:21:35;4.00;99.90
24207;DHT22;12351;52.284;9.160;2023-02-04T03:24:24;4.10;99.90
24207;DHT22;12351;52.284;9.160;2023-02-04T03:27:14;4.00;99.90
24207;DHT22;12351;52.284;9.160;2023-02-04T03:30:07;4.00;99.90
24207;DHT22;12351;52.284;9.160;2023-02-04T03:32:57;3.90;99.90
24207;DHT22;12351;52.284;9.160;2023-02-04T03:35:47;3.90;99.90
24207;DHT22;12351;52.284;9.160;2023-02-04T03:38:36;3.90;99.90
24207;DHT22;12351;52.284;9.160;2023-02-04T03:41:28;3.90;99.90
24207;DHT22;12351;52.284;9.160;2023-02-04T03:44:18;3.90;99.90
24207;DHT22;12351;52.284;9.160;2023-02-04T03:47:13;3.90;99.90
24207;DHT22;12351;52.284;9.160;2023-02-04T03:50:02;3.90;99.90
24207;DHT22;12351;52.284;9.160;2023-02-04T03:52:52;3.80;99.90
24207;DHT22;12351;52.284;9.160;2023-02-04T03:55:43;3.80;99.90
24207;DHT22;12351;52.284;9.160;2023-02-04T03:58:32;3.70;99.90
24207;DHT22;12351;52.284;9.160;2023-02-04T04:01:23;3.60;99.90
24207;DHT22;12351;52.284;9.160;2023-02-04T04:04:11;3.60;99.90
24207;DHT22;12351;52.284;9.160;2023-02-04T04:07:02;3.50;99.90
24207;DHT22;12351;52.284;9.160;2023-02-04T04:09:53;3.60;99.90
24207;DHT22;12351;52.284;9.160;2023-02-04T04:12:41;3.60;99.90
24207;DHT22;12351;52.284;9.160;2023-02-04T04:15:34;3.60;99.90
24207;DHT22;12351;52.284;9.160;2023-02-04T04:18:23;3.60;99.90
24207;DHT22;12351;52.284;9.160;2023-02-04T04:21:13;3.60;99.90
24207;DHT22;12351;52.284;9.160;2023-02-04T04:24:04;3.50;99.90
24207;DHT22;12351;52.284;9.160;2023-02-04T04:26:56;3.50;99.90
24207;DHT22;12351;52.284;9.160;2023-02-04T04:29:47;3.50;99.90
24207;DHT22;12351;52.284;9.160;2023-02-04T04:32:36;3.40;99.90
24207;DHT22;12351;52.284;9.160;2023-02-04T04:35:25;3.40;99.90
24207;DHT22;12351;52.284;9.160;2023-02-04T04:38:18;3.40;99.90
24207;DHT22;12351;52.284;9.160;2023-02-04T04:41:06;3.50;99.90
24207;DHT22;12351;52.284;9.160;2023-02-04T04:43:56;3.40;99.90
24207;DHT22;12351;52.284;9.160;2023-02-04T04:46:47;3.40;99.90
24207;DHT22;12351;52.284;9.160;2023-02-04T04:49:40;3.40;99.90
24207;DHT22;12351;52.284;9.160;2023-02-04T04:52:27;3.40;99.90
24207;DHT22;12351;52.284;9.160;2023-02-04T04:55:18;3.30;99.90
24207;DHT22;12351;52.284;9.160;2023-02-04T04:58:10;3.40;99.90
24207;DHT22;12351;52.284;9.160;2023-02-04T05:00:59;3.40;99.90
24207;DHT22;12351;52.284;9.160;2023-02-04T05:03:52;3.40;99.90
24207;DHT22;12351;52.284;9.160;2023-02-04T05:06:43;3.30;99.90
24207;DHT22;12351;52.284;9.160;2023-02-04T05:09:32;3.30;99.90
24207;DHT22;12351;52.284;9.160;2023-02-04T05:12:26;3.40;99.90
24207;DHT22;12351;52.284;9.160;2023-02-04T05:15:15;3.30;99.90
24207;DHT22;12351;52.284;9.160;2023-02-04T05:18:05;3.30;99.90
24207;DHT22;12351;52.284;9.160;2023-02-04T05:20:55;3.30;99.90
24207;DHT22;12351;52.284;9.160;2023-02-04T05:23:45;3.40;99.90
24207;DHT22;12351;52.284;9.160;2023-02-04T05:26:36;3.30;99.90
24207;DHT22;12351;52.284;9.160;2023-02-04T05:29:25;3.30;99.90
24207;DHT22;12351;52.284;9.160;2023-02-04T05:32:15;3.20;99.90
24207;DHT22;12351;52.284;9.160;2023-02-04T05:35:08;3.20;99.90
24207;DHT22;12351;52.284;9.160;2023-02-04T05:38:01;3.10;99.90
24207;DHT22;12351;52.284;9.160;2023-02-04T05:40:48;3.10;99.90
24207;DHT22;12351;52.284;9.160;2023-02-04T05:43:39;3.10;99.90
24207;DHT22;12351;52.284;9.160;2023-02-04T05:46:29;3.10;99.90
24207;DHT22;12351;52.284;9.160;2023-02-04T05:49:20;3.10;99.90
24207;DHT22;12351;52.284;9.160;2023-02-04T05:52:11;3.10;99.90
24207;DHT22;12351;52.284;9.160;2023-02-04T05:55:02;3.00;99.90
24207;DHT22;12351;52.284;9.160;2023-02-04T05:57:52;3.00;99.90
24207;DHT22;12351;52.284;9.160;2023-02-04T06:00:42;3.00;99.90
24207;DHT22;12351;52.284;9.160;2023-02-04T06:03:33;2.90;99.90
24207;DHT22;12351;52.284;9.160;2023-02-04T06:06:23;2.90;99.90
24207;DHT22;12351;52.284;9.160;2023-02-04T06:09:18;2.80;99.90
24207;DHT22;12351;52.284;9.160;2023-02-04T06:12:07;2.80;99.90
24207;DHT22;12351;52.284;9.160;2023-02-04T06:14:58;2.70;99.90
24207;DHT22;12351;52.284;9.160;2023-02-04T06:17:48;2.70;99.90
24207;DHT22;12351;52.284;9.160;2023-02-04T06:20:38;2.70;99.90
24207;DHT22;12351;52.284;9.160;2023-02-04T06:23:30;2.70;99.90
24207;DHT22;12351;52.284;9.160;2023-02-04T06:26:19;2.60;99.90
24207;DHT22;12351;52.284;9.160;2023-02-04T06:29:14;2.60;99.90
24207;DHT22;12351;52.284;9.160;2023-02-04T06:32:07;2.60;99.90
24207;DHT22;12351;52.284;9.160;2023-02-04T06:34:57;2.60;99.90
24207;DHT22;12351;52.284;9.160;2023-02-04T06:37:48;2.50;99.90
24207;DHT22;12351;52.284;9.160;2023-02-04T06:40:41;2.40;99.90
24207;DHT22;12351;52.284;9.160;2023-02-04T06:43:27;2.40;99.90
24207;DHT22;12351;52.284;9.160;2023-02-04T06:46:19;2.50;99.90
24207;DHT22;12351;52.284;9.160;2023-02-04T06:49:11;2.40;99.90
24207;DHT22;12351;52.284;9.160;2023-02-04T06:52:01;2.50;99.90
24207;DHT22;12351;52.284;9.160;2023-02-04T06:54:52;2.50;99.90
24207;DHT22;12351;52.284;9.160;2023-02-04T06:57:39;2.50;99.90
24207;DHT22;12351;52.284;9.160;2023-02-04T07:00:28;2.40;99.90
24207;DHT22;12351;52.284;9.160;2023-02-04T07:03:25;2.40;99.90
24207;DHT22;12351;52.284;9.160;2023-02-04T07:06:16;2.40;99.90
24207;DHT22;12351;52.284;9.160;2023-02-04T07:09:04;2.40;99.90
24207;DHT22;12351;52.284;9.160;2023-02-04T07:11:53;2.40;99.90
24207;DHT22;12351;52.284;9.160;2023-02-04T07:14:43;2.40;99.90
24207;DHT22;12351;52.284;9.160;2023-02-04T07:17:31;2.40;99.90
24207;DHT22;12351;52.284;9.160;2023-02-04T07:20:23;2.30;99.90
24207;DHT22;12351;52.284;9.160;2023-02-04T07:23:11;2.30;99.90
24207;DHT22;12351;52.284;9.160;2023-02-04T07:26:02;2.30;99.90
24207;DHT22;12351;52.284;9.160;2023-02-04T07:28:49;2.30;99.90
24207;DHT22;12351;52.284;9.160;2023-02-04T07:31:39;2.30;99.90
24207;DHT22;12351;52.284;9.160;2023-02-04T07:34:32;2.30;99.90
24207;DHT22;12351;52.284;9.160;2023-02-04T07:37:19;2.20;99.90
24207;DHT22;12351;52.284;9.160;2023-02-04T07:40:10;2.20;99.90
24207;DHT22;12351;52.284;9.160;2023-02-04T07:42:59;2.20;99.90
24207;DHT22;12351;52.284;9.160;2023-02-04T07:45:49;2.20;99.90
24207;DHT22;12351;52.284;9.160;2023-02-04T07:48:38;2.30;99.90
24207;DHT22;12351;52.284;9.160;2023-02-04T07:51:28;2.30;99.90
24207;DHT22;12351;52.284;9.160;2023-02-04T07:54:17;2.30;99.90
24207;DHT22;12351;52.284;9.160;2023-02-04T07:57:04;2.20;99.90
24207;DHT22;12351;52.284;9.160;2023-02-04T07:59:54;2.20;99.90
24207;DHT22;12351;52.284;9.160;2023-02-04T08:02:47;2.20;99.90
24207;DHT22;12351;52.284;9.160;2023-02-04T08:05:38;2.30;99.90
24207;DHT22;12351;52.284;9.160;2023-02-04T08:08:24;2.20;99.90
24207;DHT22;12351;52.284;9.160;2023-02-04T08:11:13;2.20;99.90
24207;DHT22;12351;52.284;9.160;2023-02-04T08:14:05;2.30;99.90
24207;DHT22;12351;52.284;9.160;2023-02-04T08:16:54;2.30;99.90
24207;DHT22;12351;52.284;9.160;2023-02-04T08:19:46;2.30;99.90
24207;DHT22;12351;52.284;9.160;2023-02-04T08:22:35;2.40;99.90
24207;DHT22;12351;52.284;9.160;2023-02-04T08:25:25;2.40;99.90
24207;DHT22;12351;52.284;9.160;2023-02-04T08:28:18;2.30;99.90
24207;DHT22;12351;52.284;9.160;2023-02-04T08:31:06;2.40;99.90
24207;DHT22;12351;52.284;9.160;2023-02-04T08:33:56;2.30;99.90
24207;DHT22;12351;52.284;9.160;2023-02-04T08:36:47;2.40;99.90
24207;DHT22;12351;52.284;9.160;2023-02-04T08:39:36;2.50;99.90
24207;DHT22;12351;52.284;9.160;2023-02-04T08:42:25;2.40;99.90
24207;DHT22;12351;52.284;9.160;2023-02-04T08:45:17;2.50;99.90
24207;DHT22;12351;52.284;9.160;2023-02-04T08:48:06;2.50;99.90
24207;DHT22;12351;52.284;9.160;2023-02-04T08:50:55;2.50;99.90
24207;DHT22;12351;52.284;9.160;2023-02-04T08:53:43;2.50;99.90
24207;DHT22;12351;52.284;9.160;2023-02-04T08:56:33;2.50;99.90
24207;DHT22;12351;52.284;9.160;2023-02-04T08:59:24;2.60;99.90
24207;DHT22;12351;52.284;9.160;2023-02-04T09:02:13;2.70;99.90
24207;DHT22;12351;52.284;9.160;2023-02-04T09:05:04;2.60;99.90
24207;DHT22;12351;52.284;9.160;2023-02-04T09:07:51;2.70;99.90
24207;DHT22;12351;52.284;9.160;2023-02-04T09:10:46;2.80;99.90
24207;DHT22;12351;52.284;9.160;2023-02-04T09:13:34;2.80;99.90
24207;DHT22;12351;52.284;9.160;2023-02-04T09:16:24;2.90;99.90
24207;DHT22;12351;52.284;9.160;2023-02-04T09:19:13;2.90;99.90
24207;DHT22;12351;52.284;9.160;2023-02-04T09:22:04;3.00;99.90
24207;DHT22;12351;52.284;9.160;2023-02-04T09:24:51;3.00;99.90
24207;DHT22;12351;52.284;9.160;2023-02-04T09:27:41;3.10;99.90
24207;DHT22;12351;52.284;9.160;2023-02-04T09:30:31;3.10;99.90
24207;DHT22;12351;52.284;9.160;2023-02-04T09:33:25;3.20;99.90
24207;DHT22;12351;52.284;9.160;2023-02-04T09:36:13;3.20;99.90
24207;DHT22;12351;52.284;9.160;2023-02-04T09:39:05;3.20;99.90
24207;DHT22;12351;52.284;9.160;2023-02-04T09:41:55;3.10;99.90
24207;DHT22;12351;52.284;9.160;2023-02-04T09:44:45;3.20;99.90
24207;DHT22;12351;52.284;9.160;2023-02-04T09:47:36;3.20;99.90
24207;DHT22;12351;52.284;9.160;2023-02-04T09:50:27;3.10;99.90
24207;DHT22;12351;52.284;9.160;2023-02-04T09:53:21;3.20;99.90
24207;DHT22;12351;52.284;9.160;2023-02-04T09:56:11;3.20;99.90
24207;DHT22;12351;52.284;9.160;2023-02-04T09:59:00;3.30;99.90
24207;DHT22;12351;52.284;9.160;2023-02-04T10:01:54;3.40;99.90
24207;DHT22;12351;52.284;9.160;2023-02-04T10:04:41;3.40;99.90
24207;DHT22;12351;52.284;9.160;2023-02-04T10:07:34;3.40;99.90
24207;DHT22;12351;52.284;9.160;2023-02-04T10:10:22;3.40;99.90
24207;DHT22;12351;52.284;9.160;2023-02-04T10:13:15;3.50;99.90
24207;DHT22;12351;52.284;9.160;2023-02-04T10:16:07;3.50;99.90
24207;DHT22;12351;52.284;9.160;2023-02-04T10:18:56;3.50;99.90
24207;DHT22;12351;52.284;9.160;2023-02-04T10:21:45;3.60;99.90
24207;DHT22;12351;52.284;9.160;2023-02-04T10:24:34;3.60;99.90
24207;DHT22;12351;52.284;9.160;2023-02-04T10:27:25;3.70;99.90
24207;DHT22;12351;52.284;9.160;2023-02-04T10:30:17;3.80;99.90
24207;DHT22;12351;52.284;9.160;2023-02-04T10:35:57;3.90;99.90
24207;DHT22;12351;52.284;9.160;2023-02-04T10:44:32;3.90;99.90
24207;DHT22;12351;52.284;9.160;2023-02-04T10:47:23;3.90;99.90
24207;DHT22;12351;52.284;9.160;2023-02-04T10:50:14;3.90;99.90
24207;DHT22;12351;52.284;9.160;2023-02-04T10:53:05;3.90;99.90
24207;DHT22;12351;52.284;9.160;2023-02-04T10:55:56;3.90;99.90
24207;DHT22;12351;52.284;9.160;2023-02-04T10:58:45;4.10;99.90
24207;DHT22;12351;52.284;9.160;2023-02-04T11:01:37;4.10;99.90
24207;DHT22;12351;52.284;9.160;2023-02-04T11:04:28;4.20;99.90
24207;DHT22;12351;52.284;9.160;2023-02-04T11:07:20;4.20;99.90
24207;DHT22;12351;52.284;9.160;2023-02-04T11:10:11;4.30;99.90
24207;DHT22;12351;52.284;9.160;2023-02-04T11:13:03;4.30;99.90
24207;DHT22;12351;52.284;9.160;2023-02-04T11:16:06;4.50;99.90
24207;DHT22;12351;52.284;9.160;2023-02-04T11:24:31;4.30;99.90
24207;DHT22;12351;52.284;9.160;2023-02-04T11:33:02;4.70;99.90
24207;DHT22;12351;52.284;9.160;2023-02-04T11:38:45;4.70;99.90
24207;DHT22;12351;52.284;9.160;2023-02-04T11:41:34;4.80;99.90
24207;DHT22;12351;52.284;9.160;2023-02-04T11:44:27;4.90;99.90
24207;DHT22;12351;52.284;9.160;2023-02-04T11:47:19;5.00;99.90
24207;DHT22;12351;52.284;9.160;2023-02-04T11:52:59;5.20;99.90
24207;DHT22;12351;52.284;9.160;2023-02-04T11:55:53;5.30;99.90
24207;DHT22;12351;52.284;9.160;2023-02-04T11:58:44;5.50;99.90
24207;DHT22;12351;52.284;9.160;2023-02-04T12:01:35;5.40;99.90
24207;DHT22;12351;52.284;9.160;2023-02-04T12:04:27;5.50;99.90
24207;DHT22;12351;52.284;9.160;2023-02-04T12:07:20;5.40;99.90
24207;DHT22;12351;52.284;9.160;2023-02-04T12:10:10;5.30;99.90
24207;DHT22;12351;52.284;9.160;2023-02-04T12:12:58;5.40;99.90
24207;DHT22;12351;52.284;9.160;2023-02-04T12:15:51;5.50;99.90
24207;DHT22;12351;52.284;9.160;2023-02-04T12:18:42;5.30;99.90
24207;DHT22;12351;52.284;9.160;2023-02-04T12:21:33;5.50;99.90
24207;DHT22;12351;52.284;9.160;2023-02-04T12:24:23;5.60;99.90
24207;DHT22;12351;52.284;9.160;2023-02-04T12:27:13;5.50;99.90
24207;DHT22;12351;52.284;9.160;2023-02-04T12:30:04;5.50;99.90
24207;DHT22;12351;52.284;9.160;2023-02-04T12:32:56;5.50;99.90
24207;DHT22;12351;52.284;9.160;2023-02-04T12:35:50;5.50;99.90
24207;DHT22;12351;52.284;9.160;2023-02-04T12:38:39;5.40;99.90
24207;DHT22;12351;52.284;9.160;2023-02-04T12:41:28;5.20;99.90
24207;DHT22;12351;52.284;9.160;2023-02-04T12:44:19;5.40;99.90
24207;DHT22;12351;52.284;9.160;2023-02-04T12:47:10;5.40;99.90
24207;DHT22;12351;52.284;9.160;2023-02-04T12:50:03;5.50;99.90
24207;DHT22;12351;52.284;9.160;2023-02-04T12:52:54;5.70;99.90
24207;DHT22;12351;52.284;9.160;2023-02-04T12:55:45;5.60;99.90
24207;DHT22;12351;52.284;9.160;2023-02-04T12:58:36;5.40;99.90
24207;DHT22;12351;52.284;9.160;2023-02-04T13:01:29;5.20;99.90
24207;DHT22;12351;52.284;9.160;2023-02-04T13:04:19;5.20;99.90
24207;DHT22;12351;52.284;9.160;2023-02-04T13:07:10;5.30;99.90
24207;DHT22;12351;52.284;9.160;2023-02-04T13:10:01;5.40;99.90
24207;DHT22;12351;52.284;9.160;2023-02-04T13:12:52;5.50;99.90
24207;DHT22;12351;52.284;9.160;2023-02-04T13:15:43;5.70;99.90
24207;DHT22;12351;52.284;9.160;2023-02-04T13:18:36;5.50;99.90
24207;DHT22;12351;52.284;9.160;2023-02-04T13:21:25;5.40;99.90
24207;DHT22;12351;52.284;9.160;2023-02-04T13:24:18;5.60;99.90
24207;DHT22;12351;52.284;9.160;2023-02-04T13:27:09;5.80;99.90
24207;DHT22;12351;52.284;9.160;2023-02-04T13:29:59;5.80;99.90
24207;DHT22;12351;52.284;9.160;2023-02-04T13:32:48;5.60;99.90
24207;DHT22;12351;52.284;9.160;2023-02-04T13:35:41;5.60;99.90
24207;DHT22;12351;52.284;9.160;2023-02-04T13:38:33;5.40;99.90
24207;DHT22;12351;52.284;9.160;2023-02-04T13:41:24;5.50;99.90
24207;DHT22;12351;52.284;9.160;2023-02-04T13:44:14;5.50;99.90
24207;DHT22;12351;52.284;9.160;2023-02-04T13:47:07;5.50;99.90
24207;DHT22;12351;52.284;9.160;2023-02-04T13:49:59;5.40;99.90
24207;DHT22;12351;52.284;9.160;2023-02-04T13:52:47;5.50;99.90
24207;DHT22;12351;52.284;9.160;2023-02-04T13:55:38;5.80;99.90
24207;DHT22;12351;52.284;9.160;2023-02-04T13:58:29;5.70;99.90
24207;DHT22;12351;52.284;9.160;2023-02-04T14:01:21;5.70;99.90
24207;DHT22;12351;52.284;9.160;2023-02-04T14:04:13;5.60;99.90
24207;DHT22;12351;52.284;9.160;2023-02-04T14:07:06;5.90;99.90
24207;DHT22;12351;52.284;9.160;2023-02-04T14:09:56;5.80;99.90
24207;DHT22;12351;52.284;9.160;2023-02-04T14:12:46;5.90;99.90
24207;DHT22;12351;52.284;9.160;2023-02-04T14:15:37;6.00;99.90
24207;DHT22;12351;52.284;9.160;2023-02-04T14:18:29;6.10;99.90
24207;DHT22;12351;52.284;9.160;2023-02-04T14:21:22;5.90;99.90
24207;DHT22;12351;52.284;9.160;2023-02-04T14:24:12;5.90;99.90
24207;DHT22;12351;52.284;9.160;2023-02-04T14:27:02;6.00;99.90
24207;DHT22;12351;52.284;9.160;2023-02-04T14:29:52;6.00;99.90
24207;DHT22;12351;52.284;9.160;2023-02-04T14:32:43;6.00;99.90
24207;DHT22;12351;52.284;9.160;2023-02-04T14:35:33;5.90;99.90
24207;DHT22;12351;52.284;9.160;2023-02-04T14:38:23;5.80;99.90
24207;DHT22;12351;52.284;9.160;2023-02-04T14:41:13;5.90;99.90
24207;DHT22;12351;52.284;9.160;2023-02-04T14:44:05;5.90;99.90
24207;DHT22;12351;52.284;9.160;2023-02-04T14:46:56;5.80;99.90
24207;DHT22;12351;52.284;9.160;2023-02-04T14:49:46;5.90;99.90
24207;DHT22;12351;52.284;9.160;2023-02-04T14:52:36;5.90;99.90
24207;DHT22;12351;52.284;9.160;2023-02-04T14:55:26;5.80;99.90
24207;DHT22;12351;52.284;9.160;2023-02-04T14:58:19;5.70;99.90
24207;DHT22;12351;52.284;9.160;2023-02-04T15:01:09;5.60;99.90
24207;DHT22;12351;52.284;9.160;2023-02-04T15:04:00;5.70;99.90
24207;DHT22;12351;52.284;9.160;2023-02-04T15:06:51;5.70;99.90
24207;DHT22;12351;52.284;9.160;2023-02-04T15:09:40;5.60;99.90
24207;DHT22;12351;52.284;9.160;2023-02-04T15:12:33;5.60;99.90
24207;DHT22;12351;52.284;9.160;2023-02-04T15:15:22;5.50;99.90
24207;DHT22;12351;52.284;9.160;2023-02-04T15:18:12;5.50;99.90
24207;DHT22;12351;52.284;9.160;2023-02-04T15:21:04;5.50;99.90
24207;DHT22;12351;52.284;9.160;2023-02-04T15:23:55;5.50;99.90
24207;DHT22;12351;52.284;9.160;2023-02-04T15:26:45;5.30;99.90
24207;DHT22;12351;52.284;9.160;2023-02-04T15:29:37;5.30;99.90
24207;DHT22;12351;52.284;9.160;2023-02-04T15:32:27;5.20;99.90
24207;DHT22;12351;52.284;9.160;2023-02-04T15:35:18;5.30;99.90
24207;DHT22;12351;52.284;9.160;2023-02-04T15:38:08;5.20;99.90
24207;DHT22;12351;52.284;9.160;2023-02-04T15:40:58;5.30;99.90
24207;DHT22;12351;52.284;9.160;2023-02-04T15:43:51;5.30;99.90
24207;DHT22;12351;52.284;9.160;2023-02-04T15:46:40;5.20;99.90
24207;DHT22;12351;52.284;9.160;2023-02-04T15:49:30;5.10;99.90
24207;DHT22;12351;52.284;9.160;2023-02-04T15:52:21;5.00;99.90
24207;DHT22;12351;52.284;9.160;2023-02-04T15:55:12;5.10;99.90
24207;DHT22;12351;52.284;9.160;2023-02-04T15:58:04;5.00;99.90
24207;DHT22;12351;52.284;9.160;2023-02-04T16:00:55;5.00;99.90
24207;DHT22;12351;52.284;9.160;2023-02-04T16:03:47;4.90;99.90
24207;DHT22;12351;52.284;9.160;2023-02-04T16:06:39;4.90;99.90
24207;DHT22;12351;52.284;9.160;2023-02-04T16:09:30;4.90;99.90
24207;DHT22;12351;52.284;9.160;2023-02-04T16:12:19;4.80;99.90
24207;DHT22;12351;52.284;9.160;2023-02-04T16:15:10;4.80;99.90
24207;DHT22;12351;52.284;9.160;2023-02-04T16:18:00;4.70;99.90
24207;DHT22;12351;52.284;9.160;2023-02-04T16:20:53;4.60;99.90
24207;DHT22;12351;52.284;9.160;2023-02-04T16:23:41;4.50;99.90
24207;DHT22;12351;52.284;9.160;2023-02-04T16:26:33;4.50;99.90
24207;DHT22;12351;52.284;9.160;2023-02-04T16:29:23;4.50;99.90
24207;DHT22;12351;52.284;9.160;2023-02-04T16:32:17;4.50;99.90
24207;DHT22;12351;52.284;9.160;2023-02-04T16:35:06;4.30;99.90
24207;DHT22;12351;52.284;9.160;2023-02-04T16:37:58;4.30;99.90
24207;DHT22;12351;52.284;9.160;2023-02-04T16:40:48;4.30;99.90
24207;DHT22;12351;52.284;9.160;2023-02-04T16:43:41;4.20;99.90
24207;DHT22;12351;52.284;9.160;2023-02-04T16:46:31;4.30;99.90
24207;DHT22;12351;52.284;9.160;2023-02-04T16:49:22;4.20;99.90
24207;DHT22;12351;52.284;9.160;2023-02-04T16:52:13;4.20;99.90
24207;DHT22;12351;52.284;9.160;2023-02-04T16:55:05;4.10;99.90
24207;DHT22;12351;52.284;9.160;2023-02-04T16:57:55;4.10;99.90
24207;DHT22;12351;52.284;9.160;2023-02-04T17:00:45;4.10;99.90
24207;DHT22;12351;52.284;9.160;2023-02-04T17:03:37;4.00;99.90
24207;DHT22;12351;52.284;9.160;2023-02-04T17:06:28;4.00;99.90
24207;DHT22;12351;52.284;9.160;2023-02-04T17:09:19;4.00;99.90
24207;DHT22;12351;52.284;9.160;2023-02-04T17:12:09;4.00;99.90
24207;DHT22;12351;52.284;9.160;2023-02-04T17:15:01;4.00;99.90
24207;DHT22;12351;52.284;9.160;2023-02-04T17:17:50;3.90;99.90
24207;DHT22;12351;52.284;9.160;2023-02-04T17:20:41;3.80;99.90
24207;DHT22;12351;52.284;9.160;2023-02-04T17:23:30;3.80;99.90
24207;DHT22;12351;52.284;9.160;2023-02-04T17:26:18;3.80;99.90
24207;DHT22;12351;52.284;9.160;2023-02-04T17:29:13;3.80;99.90
24207;DHT22;12351;52.284;9.160;2023-02-04T17:32:04;3.70;99.90
24207;DHT22;12351;52.284;9.160;2023-02-04T17:34:56;3.60;99.90
24207;DHT22;12351;52.284;9.160;2023-02-04T17:37:46;3.60;99.90
24207;DHT22;12351;52.284;9.160;2023-02-04T17:40:37;3.50;99.90
24207;DHT22;12351;52.284;9.160;2023-02-04T17:43:30;3.50;99.90
24207;DHT22;12351;52.284;9.160;2023-02-04T17:46:20;3.40;99.90
24207;DHT22;12351;52.284;9.160;2023-02-04T17:49:11;3.40;99.90
24207;DHT22;12351;52.284;9.160;2023-02-04T17:52:04;3.30;99.90
24207;DHT22;12351;52.284;9.160;2023-02-04T17:54:55;3.30;99.90
24207;DHT22;12351;52.284;9.160;2023-02-04T17:57:46;3.30;99.90
24207;DHT22;12351;52.284;9.160;2023-02-04T18:00:37;3.30;99.90
24207;DHT22;12351;52.284;9.160;2023-02-04T18:03:27;3.30;99.90
24207;DHT22;12351;52.284;9.160;2023-02-04T18:09:10;3.30;99.90
24207;DHT22;12351;52.284;9.160;2023-02-04T18:11:59;3.20;99.90
24207;DHT22;12351;52.284;9.160;2023-02-04T18:14:46;3.10;99.90
24207;DHT22;12351;52.284;9.160;2023-02-04T18:17:37;3.10;99.90
24207;DHT22;12351;52.284;9.160;2023-02-04T18:20:26;3.10;99.90
24207;DHT22;12351;52.284;9.160;2023-02-04T18:23:19;3.10;99.90
24207;DHT22;12351;52.284;9.160;2023-02-04T18:26:10;3.10;99.90
24207;DHT22;12351;52.284;9.160;2023-02-04T18:29:02;3.10;99.90
24207;DHT22;12351;52.284;9.160;2023-02-04T18:31:53;3.00;99.90
24207;DHT22;12351;52.284;9.160;2023-02-04T18:34:44;3.00;99.90
24207;DHT22;12351;52.284;9.160;2023-02-04T18:37:37;3.10;99.90
24207;DHT22;12351;52.284;9.160;2023-02-04T18:40:29;3.20;99.90
24207;DHT22;12351;52.284;9.160;2023-02-04T18:43:21;3.20;99.90
24207;DHT22;12351;52.284;9.160;2023-02-04T18:46:15;3.30;99.90
24207;DHT22;12351;52.284;9.160;2023-02-04T18:49:05;3.30;99.90
24207;DHT22;12351;52.284;9.160;2023-02-04T18:51:54;3.30;99.90
24207;DHT22;12351;52.284;9.160;2023-02-04T18:57:40;3.30;99.90